Maersk Antares — 9VHK7 — position and weather

sailwx.info

Track history (hours):
 
Tides and Currents Weather Stations Pressure Air Temp Water Temp Dewpoint Dewpoint Depression Visibility Wind Speed Wind Dir Waves Ship Positions

Maersk Antares

Last reported at 2018-Feb-14 19:37 UTC. Time now 2018-Feb-18 20:24 UTC.
Position N 35°58' E 120°33'.

Length 338 m; draft 12.7 m.

Type: Ship (hazmat cat A). MMSI: 565661000.

Date/timePositionNaut miles runAvg speedWind from/ knotsBaromVisibWave heightAir tempDewpointWater temp
2018-Feb-14 19:37N 35°58' E 120°33'3 9.8
2018-Feb-14 19:20N 35°59' E 120°30'611.3
2018-Feb-14 18:49N 36°00' E 120°23'4 9.0
2018-Feb-14 18:20N 36°01' E 120°18'4 8.6
2018-Feb-14 17:49N 36°00' E 120°13'0 0.1
2018-Feb-14 14:00N 36°00' E 120°12'0 0.1
2018-Feb-14 13:23N 36°00' E 120°12'0 0.0
2018-Feb-14 12:58N 36°00' E 120°12'0 0.0
2018-Feb-14 10:04N 36°00' E 120°12'0 0.0
2018-Feb-14 08:31N 36°00' E 120°12'0 0.0
2018-Feb-14 08:15N 36°00' E 120°12'0 0.0
2018-Feb-14 07:22N 36°00' E 120°12'0 0.0
2018-Feb-14 06:43N 36°00' E 120°12'0 0.0
2018-Feb-14 05:49N 36°00' E 120°12'0 0.0
2018-Feb-14 05:19N 36°00' E 120°12'0 0.0
2018-Feb-14 04:10N 36°00' E 120°12'0 0.0
2018-Feb-14 03:56N 36°00' E 120°12'0 0.0
2018-Feb-14 03:13N 36°00' E 120°12'0 0.0
2018-Feb-14 02:55N 36°00' E 120°12'0 0.0
2018-Feb-14 02:13N 36°00' E 120°12'0 0.0
2018-Feb-14 01:58N 36°00' E 120°12'0 0.0
2018-Feb-14 00:01N 36°00' E 120°12'0 0.0
2018-Feb-13 23:59N 36°00' E 120°12'0 0.0
2018-Feb-13 23:25N 36°00' E 120°12'0 0.0
2018-Feb-13 22:25N 36°00' E 120°12'0 0.1
2018-Feb-13 21:52N 36°00' E 120°12'0 0.1
2018-Feb-13 21:31N 36°00' E 120°12'0 0.0
2018-Feb-13 19:34N 36°00' E 120°12'0 0.0
2018-Feb-13 19:19N 36°00' E 120°12'0 0.0
2018-Feb-13 18:46N 36°00' E 120°12'0 0.0
2018-Feb-13 18:28N 36°00' E 120°12'0 0.0
2018-Feb-13 16:25N 36°00' E 120°12'0 0.0
2018-Feb-13 15:43N 36°00' E 120°12'0 0.0
2018-Feb-13 15:25N 36°00' E 120°12'0 0.0
2018-Feb-13 14:52N 36°00' E 120°12'4 2.0
2018-Feb-13 12:48N 36°02' E 120°17'511.0
2018-Feb-13 12:22N 36°01' E 120°23'7 9.1
2018-Feb-13 11:34N 35°60' E 120°31'144 8.3
2018-Feb-12 18:06N 38°02' E 122°08'220.9
2018-Feb-12 18:00N 38°02' E 122°06'2420.7
2018-Feb-12 16:50N 38°10' E 121°36'720.4
2018-Feb-12 16:30N 38°15' E 121°31'  
2018-Feb-10 08:34N 38°24' E 121°28'218.0
2018-Feb-10 08:27N 38°23' E 121°30'  
2018-Feb-07 09:30N 41°38' E 141°20'815.9
2018-Feb-07 09:00N 41°38' E 141°31'815.3
2018-Feb-07 08:30N 41°38' E 141°41'916.7
2018-Feb-07 07:59N 41°39' E 141°53'  
Track history (hours):
 
Tides and Currents Weather Stations Pressure Air Temp Water Temp Dewpoint Dewpoint Depression Visibility Wind Speed Wind Dir Waves Ship Positions

Maersk Antares

Last reported at 2018-Feb-14 19:37 UTC. Time now 2018-Feb-18 20:24 UTC.
Position N 35°58' E 120°33'.

Length 338 m; draft 12.7 m.

Type: Ship (hazmat cat A). MMSI: 565661000.

Date/timePositionNaut miles runAvg speedWind from/ knotsBaromVisibWave heightAir tempDewpointWater temp
2018-Feb-14 19:37N 35°58' E 120°33'3 9.8
2018-Feb-14 19:20N 35°59' E 120°30'611.3
2018-Feb-14 18:49N 36°00' E 120°23'4 9.0
2018-Feb-14 18:20N 36°01' E 120°18'4 8.6
2018-Feb-14 17:49N 36°00' E 120°13'0 0.1
2018-Feb-14 14:00N 36°00' E 120°12'0 0.1
2018-Feb-14 13:23N 36°00' E 120°12'0 0.0
2018-Feb-14 12:58N 36°00' E 120°12'0 0.0
2018-Feb-14 10:04N 36°00' E 120°12'0 0.0
2018-Feb-14 08:31N 36°00' E 120°12'0 0.0
2018-Feb-14 08:15N 36°00' E 120°12'0 0.0
2018-Feb-14 07:22N 36°00' E 120°12'0 0.0
2018-Feb-14 06:43N 36°00' E 120°12'0 0.0
2018-Feb-14 05:49N 36°00' E 120°12'0 0.0
2018-Feb-14 05:19N 36°00' E 120°12'0 0.0
2018-Feb-14 04:10N 36°00' E 120°12'0 0.0
2018-Feb-14 03:56N 36°00' E 120°12'0 0.0
2018-Feb-14 03:13N 36°00' E 120°12'0 0.0
2018-Feb-14 02:55N 36°00' E 120°12'0 0.0
2018-Feb-14 02:13N 36°00' E 120°12'0 0.0
2018-Feb-14 01:58N 36°00' E 120°12'0 0.0
2018-Feb-14 00:01N 36°00' E 120°12'0 0.0
2018-Feb-13 23:59N 36°00' E 120°12'0 0.0
2018-Feb-13 23:25N 36°00' E 120°12'0 0.0
2018-Feb-13 22:25N 36°00' E 120°12'0 0.1
2018-Feb-13 21:52N 36°00' E 120°12'0 0.1
2018-Feb-13 21:31N 36°00' E 120°12'0 0.0
2018-Feb-13 19:34N 36°00' E 120°12'0 0.0
2018-Feb-13 19:19N 36°00' E 120°12'0 0.0
2018-Feb-13 18:46N 36°00' E 120°12'0 0.0
2018-Feb-13 18:28N 36°00' E 120°12'0 0.0
2018-Feb-13 16:25N 36°00' E 120°12'0 0.0
2018-Feb-13 15:43N 36°00' E 120°12'0 0.0
2018-Feb-13 15:25N 36°00' E 120°12'0 0.0
2018-Feb-13 14:52N 36°00' E 120°12'4 2.0
2018-Feb-13 12:48N 36°02' E 120°17'511.0
2018-Feb-13 12:22N 36°01' E 120°23'7 9.1
2018-Feb-13 11:34N 35°60' E 120°31'144 8.3
2018-Feb-12 18:06N 38°02' E 122°08'220.9
2018-Feb-12 18:00N 38°02' E 122°06'2420.7
2018-Feb-12 16:50N 38°10' E 121°36'720.4
2018-Feb-12 16:30N 38°15' E 121°31'  
2018-Feb-10 08:34N 38°24' E 121°28'218.0
2018-Feb-10 08:27N 38°23' E 121°30'  
2018-Feb-07 09:30N 41°38' E 141°20'815.9
2018-Feb-07 09:00N 41°38' E 141°31'815.3
2018-Feb-07 08:30N 41°38' E 141°41'916.7
2018-Feb-07 07:59N 41°39' E 141°53'  

Dump ship's entire track history